createdAt,value
2022-12-18T00:01:10.527Z,206.10
2022-12-18T00:06:10.644Z,206.10
2022-12-18T00:11:08.941Z,206.10
2022-12-18T00:16:08.273Z,206.10
2022-12-18T00:21:09.592Z,206.10
2022-12-18T00:26:08.901Z,417.20
2022-12-18T00:31:06.289Z,432.90
2022-12-18T00:36:06.401Z,407.20
2022-12-18T00:41:05.736Z,471.80
2022-12-18T00:46:05.074Z,427.30
2022-12-18T00:51:04.263Z,428.90
2022-12-18T00:56:02.559Z,420.80
2022-12-18T01:01:00.915Z,409.80
2022-12-18T01:06:00.155Z,404.90
2022-12-18T01:11:00.258Z,399.00
2022-12-18T01:15:59.627Z,397.10
2022-12-18T01:20:59.733Z,397.10
2022-12-18T01:25:58.194Z,419.80
2022-12-18T01:30:57.288Z,407.00
2022-12-18T01:35:56.579Z,433.60
2022-12-18T01:40:56.890Z,435.70
2022-12-18T01:45:55.226Z,432.30
2022-12-18T01:50:55.362Z,434.80
2022-12-18T01:55:54.719Z,432.50
2022-12-18T02:00:53.098Z,429.40
2022-12-18T02:05:54.252Z,441.30
2022-12-18T02:10:52.544Z,426.60
2022-12-18T02:15:51.825Z,442.80
2022-12-18T02:20:51.129Z,405.10
2022-12-18T02:25:50.440Z,411.80
2022-12-18T02:30:50.767Z,396.70
2022-12-18T02:35:47.871Z,392.10
2022-12-18T02:40:48.178Z,429.20
2022-12-18T02:45:47.498Z,413.60
2022-12-18T02:50:45.793Z,406.00
2022-12-18T02:55:45.092Z,422.40
2022-12-18T03:00:44.372Z,376.60
2022-12-18T03:05:44.664Z,426.10
2022-12-18T03:10:42.968Z,421.10
2022-12-18T03:15:42.273Z,420.40
2022-12-18T03:20:42.574Z,411.30
2022-12-18T03:25:41.873Z,406.10
2022-12-18T03:30:40.274Z,414.50
2022-12-18T03:35:38.392Z,418.20
2022-12-18T03:40:39.765Z,411.10
2022-12-18T03:45:38.058Z,437.60
2022-12-18T03:50:38.363Z,426.20
2022-12-18T03:55:37.662Z,425.70
2022-12-18T04:00:35.996Z,406.20
2022-12-18T04:05:37.157Z,432.90
2022-12-18T04:10:35.441Z,414.20
2022-12-18T04:15:35.777Z,425.80
2022-12-18T04:20:32.861Z,426.50
2022-12-18T04:25:32.168Z,435.70
2022-12-18T04:30:32.450Z,414.00
2022-12-18T04:35:30.754Z,413.20
2022-12-18T04:40:30.046Z,423.30
2022-12-18T04:45:29.368Z,425.60
2022-12-18T04:50:28.545Z,379.20
2022-12-18T04:55:28.646Z,414.30
2022-12-18T05:00:27.948Z,417.40
2022-12-18T05:05:26.076Z,424.70
2022-12-18T05:10:27.394Z,423.90
2022-12-18T05:15:25.594Z,425.90
2022-12-18T05:20:24.904Z,411.20
2022-12-18T05:25:23.221Z,414.30
2022-12-18T05:30:22.699Z,420.70
2022-12-18T05:35:21.796Z,429.00
2022-12-18T05:40:22.137Z,419.30
2022-12-18T05:45:21.429Z,411.80
2022-12-18T05:50:19.706Z,403.50
2022-12-18T05:55:20.028Z,378.90
2022-12-18T06:00:18.325Z,415.50
2022-12-18T06:05:18.694Z,408.70
2022-12-18T06:10:16.825Z,408.90
2022-12-18T06:15:17.162Z,411.40
2022-12-18T06:20:15.438Z,396.30
2022-12-18T06:25:14.682Z,426.90
2022-12-18T06:30:14.011Z,425.30
2022-12-18T06:35:13.196Z,413.60
2022-12-18T06:40:12.426Z,404.60
2022-12-18T06:45:12.743Z,393.90
2022-12-18T06:50:11.053Z,406.60
2022-12-18T06:55:10.366Z,413.20
2022-12-18T07:00:09.661Z,410.90
2022-12-18T07:05:11.298Z,414.10
2022-12-18T07:10:08.211Z,412.50
2022-12-18T07:15:07.571Z,431.40
2022-12-18T07:20:07.697Z,412.00
2022-12-18T07:25:06.006Z,414.80
2022-12-18T07:30:07.311Z,397.70
2022-12-18T07:35:06.628Z,411.30
2022-12-18T07:40:03.915Z,434.90
2022-12-18T07:45:03.259Z,392.20
2022-12-18T07:50:03.351Z,430.00
2022-12-18T07:55:01.657Z,412.00
2022-12-18T08:00:00.949Z,407.10
2022-12-18T08:05:00.235Z,406.90
2022-12-18T08:10:00.530Z,417.90
2022-12-18T08:14:58.680Z,424.20
2022-12-18T08:19:59.987Z,424.70
2022-12-18T08:24:57.300Z,401.60
2022-12-18T08:29:56.611Z,425.00
2022-12-18T08:34:56.977Z,419.40
2022-12-18T08:39:56.091Z,409.50
2022-12-18T08:44:54.421Z,390.20
2022-12-18T08:49:54.562Z,446.70
2022-12-18T08:54:52.856Z,401.20
2022-12-18T08:59:53.139Z,386.80
2022-12-18T09:04:57.118Z,403.80
2022-12-18T09:09:50.645Z,427.50
2022-12-18T09:14:50.934Z,413.60
2022-12-18T09:19:49.243Z,428.30
2022-12-18T09:24:48.520Z,419.20
2022-12-18T09:29:47.811Z,407.60
2022-12-18T09:34:47.113Z,447.70
2022-12-18T09:39:46.467Z,389.80
2022-12-18T09:44:45.956Z,345.50
2022-12-18T09:49:44.904Z,421.00
2022-12-18T09:54:44.209Z,379.60
2022-12-18T09:59:44.523Z,346.20
2022-12-18T10:04:44.950Z,362.30
2022-12-18T10:09:42.089Z,375.20
2022-12-18T10:14:41.421Z,375.20
2022-12-18T10:19:41.738Z,375.20
2022-12-18T10:24:39.093Z,375.20
2022-12-18T10:29:39.258Z,375.20
2022-12-18T10:34:38.383Z,375.20
2022-12-18T10:39:37.688Z,368.70
2022-12-18T10:44:37.004Z,369.00
2022-12-18T10:49:37.313Z,369.30
2022-12-18T10:54:35.614Z,369.30
2022-12-18T10:59:34.886Z,369.30
2022-12-18T11:04:34.145Z,369.30
2022-12-18T11:09:34.400Z,369.30
2022-12-18T11:14:32.659Z,369.30
2022-12-18T11:19:31.937Z,369.30
2022-12-18T11:24:31.236Z,369.30
2022-12-18T11:29:31.554Z,369.30
2022-12-18T11:34:30.540Z,369.30
2022-12-18T11:39:29.224Z,369.30
2022-12-18T11:44:30.367Z,369.30
2022-12-18T11:49:27.679Z,369.30
2022-12-18T11:54:28.023Z,369.30
2022-12-18T11:59:28.320Z,369.30
2022-12-18T12:04:25.637Z,369.30
2022-12-18T12:09:25.782Z,369.30
2022-12-18T12:14:24.060Z,369.30
2022-12-18T12:19:24.370Z,369.30
2022-12-18T12:24:24.643Z,369.30
2022-12-18T12:29:22.893Z,369.30
2022-12-18T12:34:21.083Z,369.30
2022-12-18T12:39:20.284Z,369.30
2022-12-18T12:44:19.489Z,369.30
2022-12-18T12:49:18.667Z,369.30
2022-12-18T12:54:18.825Z,369.30
2022-12-18T12:59:17.991Z,369.30
2022-12-18T13:04:16.352Z,369.30
2022-12-18T13:09:15.381Z,369.30
2022-12-18T13:14:15.641Z,369.30
2022-12-18T13:19:13.957Z,369.30
2022-12-18T13:24:13.129Z,369.30
2022-12-18T13:29:12.326Z,369.30
2022-12-18T13:34:25.705Z,369.30
2022-12-18T13:39:10.754Z,369.30
2022-12-18T13:44:08.964Z,369.30
2022-12-18T13:49:09.245Z,369.30
2022-12-18T13:54:08.620Z,369.30
2022-12-18T13:59:08.787Z,369.30
2022-12-18T14:04:07.101Z,369.30
2022-12-18T14:09:06.310Z,369.30
2022-12-18T14:14:04.513Z,369.30
2022-12-18T14:19:15.177Z,369.30
2022-12-18T14:24:05.941Z,369.30
2022-12-18T14:29:02.149Z,369.30
2022-12-18T14:34:02.325Z,369.30
2022-12-18T14:39:03.624Z,369.30
2022-12-18T14:44:00.836Z,369.30
2022-12-18T14:49:00.217Z,369.30
2022-12-18T14:54:01.269Z,369.30
2022-12-18T14:58:59.426Z,369.30
2022-12-18T15:03:58.517Z,369.30
2022-12-18T15:08:56.937Z,369.30
2022-12-18T15:13:59.146Z,369.30
2022-12-18T15:18:55.408Z,369.30
2022-12-18T15:23:55.431Z,369.30
2022-12-18T15:28:54.019Z,369.30
2022-12-18T15:33:53.070Z,369.30
2022-12-18T15:38:53.990Z,369.30
2022-12-18T15:43:51.491Z,369.30
2022-12-18T15:48:50.841Z,369.30
2022-12-18T15:53:49.942Z,369.30
2022-12-18T15:58:50.251Z,369.30
2022-12-18T16:03:49.693Z,369.30
2022-12-18T16:08:47.925Z,369.30
2022-12-18T16:13:47.766Z,369.30
2022-12-18T16:18:46.324Z,369.30
2022-12-18T16:23:46.394Z,369.30
2022-12-18T16:28:48.352Z,369.30
2022-12-18T16:33:44.637Z,369.30
2022-12-18T16:38:43.998Z,369.30
2022-12-18T16:43:42.717Z,369.30
2022-12-18T16:48:41.746Z,369.30
2022-12-18T16:53:41.319Z,369.30
2022-12-18T16:58:40.290Z,369.30
2022-12-18T17:03:39.810Z,369.30
2022-12-18T17:08:38.356Z,369.30
2022-12-18T17:13:39.099Z,369.30
2022-12-18T17:18:36.683Z,369.30
2022-12-18T17:23:36.260Z,369.30
2022-12-18T17:28:35.354Z,369.30
2022-12-18T17:33:34.749Z,369.30
2022-12-18T17:38:33.953Z,369.30
2022-12-18T17:43:34.090Z,369.30
2022-12-18T17:48:33.454Z,369.30
2022-12-18T17:53:31.701Z,369.30
2022-12-18T17:58:32.862Z,369.30
2022-12-18T18:03:32.174Z,369.30
2022-12-18T18:08:29.338Z,369.30
2022-12-18T18:13:33.494Z,369.30
2022-12-18T18:18:28.889Z,369.30
2022-12-18T18:23:27.213Z,369.30
2022-12-18T18:28:25.133Z,369.30
2022-12-18T18:33:26.719Z,369.30
2022-12-18T18:38:24.928Z,369.30
2022-12-18T18:43:24.174Z,369.30
2022-12-18T18:48:23.398Z,369.30
2022-12-18T18:53:21.242Z,369.30
2022-12-18T18:58:21.571Z,369.30
2022-12-18T19:03:21.982Z,369.30
2022-12-18T19:08:20.091Z,369.30
2022-12-18T19:13:19.666Z,369.30
2022-12-18T19:18:19.918Z,369.30
2022-12-18T19:23:23.179Z,369.30
2022-12-18T19:28:21.922Z,369.30
2022-12-18T19:33:41.793Z,369.30
2022-12-18T19:38:15.523Z,369.30
2022-12-18T19:43:15.008Z,369.30
2022-12-18T19:48:14.361Z,369.30
2022-12-18T19:53:13.204Z,369.30
2022-12-18T19:58:15.709Z,369.30
2022-12-18T20:03:22.374Z,369.30
2022-12-18T20:08:11.186Z,369.30
2022-12-18T20:13:15.227Z,369.30
2022-12-18T20:18:11.194Z,369.30
2022-12-18T20:23:10.965Z,369.30
2022-12-18T20:28:08.211Z,369.30
2022-12-18T20:33:07.543Z,369.30
2022-12-18T20:38:06.703Z,369.30
2022-12-18T20:43:05.698Z,369.30
2022-12-18T20:48:05.236Z,369.30
2022-12-18T20:53:04.135Z,369.30
2022-12-18T20:58:03.421Z,369.30
2022-12-18T21:03:02.738Z,369.30
2022-12-18T21:08:05.788Z,369.30
2022-12-18T21:13:04.625Z,369.30
2022-12-18T21:18:01.488Z,369.30
2022-12-18T21:23:15.840Z,369.30
2022-12-18T21:27:59.778Z,369.30
2022-12-18T21:32:57.969Z,369.30
2022-12-18T21:37:57.176Z,369.30
2022-12-18T21:42:57.354Z,369.30
2022-12-18T21:47:56.512Z,369.30
2022-12-18T21:52:54.671Z,369.30
2022-12-18T21:57:53.826Z,369.30
2022-12-18T22:03:10.455Z,369.30
2022-12-18T22:07:53.236Z,369.30
2022-12-18T22:12:54.834Z,369.30
2022-12-18T22:17:50.712Z,369.30
2022-12-18T22:22:51.000Z,369.30
2022-12-18T22:27:49.285Z,369.30
2022-12-18T22:32:48.676Z,369.30
2022-12-18T22:37:47.833Z,369.30
2022-12-18T22:42:47.935Z,369.30
2022-12-18T22:47:45.154Z,369.30
2022-12-18T22:52:45.416Z,369.30
2022-12-18T22:57:48.740Z,369.30
2022-12-18T23:02:44.180Z,369.30
2022-12-18T23:07:43.238Z,369.30
2022-12-18T23:12:42.501Z,369.30
2022-12-18T23:17:41.850Z,369.30
2022-12-18T23:22:39.896Z,369.30
2022-12-18T23:27:41.203Z,369.30
2022-12-18T23:32:40.449Z,369.30
2022-12-18T23:38:01.100Z,369.30
2022-12-18T23:42:37.984Z,369.30
2022-12-18T23:47:37.230Z,369.30
2022-12-18T23:52:36.592Z,369.30
2022-12-18T23:57:35.661Z,369.30
